createdAt,value
2023-03-26T00:00:21.060Z,77.15
2023-03-26T00:02:47.418Z,76.62
2023-03-26T00:05:14.039Z,76.29
2023-03-26T00:07:40.418Z,76.44
2023-03-26T00:10:06.741Z,76.76
2023-03-26T00:12:33.100Z,77.12
2023-03-26T00:14:59.406Z,77.21
2023-03-26T00:17:25.873Z,77.11
2023-03-26T00:19:52.199Z,77.03
2023-03-26T00:22:18.542Z,76.68
2023-03-26T00:24:44.877Z,76.76
2023-03-26T00:27:11.244Z,76.72
2023-03-26T00:29:37.584Z,76.83
2023-03-26T00:32:04.379Z,76.36
2023-03-26T00:34:30.749Z,76.58
2023-03-26T00:36:57.155Z,76.73
2023-03-26T00:39:23.586Z,76.71
2023-03-26T00:41:49.936Z,76.99
2023-03-26T00:44:16.270Z,76.67
2023-03-26T00:46:42.710Z,76.84
2023-03-26T00:49:09.001Z,76.91
2023-03-26T00:51:35.364Z,76.89
2023-03-26T00:54:01.755Z,76.96
2023-03-26T00:56:28.120Z,77.05
2023-03-26T00:58:54.505Z,76.80
2023-03-26T01:01:20.915Z,76.74
2023-03-26T01:04:01.242Z,76.80
2023-03-26T01:06:13.614Z,76.79
2023-03-26T01:08:39.983Z,76.29
2023-03-26T01:11:06.387Z,76.43
2023-03-26T01:13:32.779Z,76.23
2023-03-26T01:15:59.226Z,76.14
2023-03-26T01:18:25.483Z,75.96
2023-03-26T01:20:51.874Z,75.82
2023-03-26T01:23:18.277Z,75.93
2023-03-26T01:25:44.658Z,75.85
2023-03-26T01:28:10.979Z,75.82
2023-03-26T01:30:37.351Z,75.85
2023-03-26T01:33:03.808Z,75.93
2023-03-26T01:35:30.116Z,76.06
2023-03-26T01:37:56.490Z,76.26
2023-03-26T01:40:22.860Z,76.60
2023-03-26T01:42:49.291Z,77.00
2023-03-26T01:45:15.647Z,77.26
2023-03-26T01:47:42.087Z,77.40
2023-03-26T01:50:08.395Z,77.60
2023-03-26T01:52:34.730Z,77.71
2023-03-26T01:55:01.101Z,77.80
2023-03-26T01:57:27.491Z,77.90
2023-03-26T01:59:53.841Z,77.95
2023-03-26T02:02:20.310Z,78.04
2023-03-26T02:04:46.517Z,78.21
2023-03-26T02:07:12.925Z,78.44
2023-03-26T02:09:39.257Z,78.85
2023-03-26T02:12:05.648Z,78.95
2023-03-26T02:14:32.056Z,79.23
2023-03-26T02:16:58.425Z,79.49
2023-03-26T02:19:24.830Z,79.59
2023-03-26T02:21:51.199Z,79.98
2023-03-26T02:24:17.548Z,80.11
2023-03-26T02:26:43.888Z,80.65
2023-03-26T02:29:10.208Z,80.81
2023-03-26T02:31:36.663Z,81.42
2023-03-26T02:34:02.964Z,81.30
2023-03-26T02:36:29.509Z,80.91
2023-03-26T02:38:55.729Z,80.79
2023-03-26T02:41:22.080Z,80.89
2023-03-26T02:43:48.453Z,81.07
2023-03-26T02:46:14.871Z,81.38
2023-03-26T02:48:41.197Z,81.61
2023-03-26T02:51:07.547Z,81.89
2023-03-26T02:53:33.929Z,81.83
2023-03-26T02:56:00.337Z,81.95
2023-03-26T02:58:26.686Z,82.38
2023-03-26T03:00:53.078Z,82.37
2023-03-26T03:03:19.439Z,82.70
2023-03-26T03:05:45.746Z,83.14
2023-03-26T03:08:12.111Z,83.20
2023-03-26T03:10:38.508Z,83.27
2023-03-26T03:13:04.824Z,83.20
2023-03-26T03:15:31.182Z,83.39
2023-03-26T03:17:57.580Z,83.47
2023-03-26T03:20:23.987Z,83.92
2023-03-26T03:22:50.298Z,83.78
2023-03-26T03:25:16.709Z,83.77
2023-03-26T03:27:43.120Z,83.97
2023-03-26T03:30:09.413Z,84.06
2023-03-26T03:32:35.751Z,84.14
2023-03-26T03:35:02.133Z,84.17
2023-03-26T03:37:28.490Z,83.73
2023-03-26T03:39:54.845Z,83.58
2023-03-26T03:42:21.160Z,83.54
2023-03-26T03:44:47.620Z,83.57
2023-03-26T03:47:13.982Z,83.67
2023-03-26T03:49:40.287Z,83.31
2023-03-26T03:52:06.688Z,83.42
2023-03-26T03:54:33.028Z,83.38
2023-03-26T03:56:59.410Z,83.55
2023-03-26T03:59:25.743Z,83.58
2023-03-26T04:01:52.103Z,83.65
2023-03-26T04:04:18.470Z,83.67
2023-03-26T04:06:44.856Z,83.83
2023-03-26T04:09:11.240Z,83.85
2023-03-26T04:11:37.592Z,84.05
2023-03-26T04:14:03.988Z,84.00
2023-03-26T04:16:30.454Z,84.08
2023-03-26T04:18:56.759Z,84.31
2023-03-26T04:21:23.104Z,84.34
2023-03-26T04:23:49.530Z,84.19
2023-03-26T04:26:15.987Z,84.16
2023-03-26T04:28:42.373Z,84.25
2023-03-26T04:31:08.619Z,84.25
2023-03-26T04:33:34.973Z,84.28
2023-03-26T04:36:01.289Z,84.12
2023-03-26T04:38:27.620Z,84.15
2023-03-26T04:40:53.981Z,84.22
2023-03-26T04:43:20.383Z,84.28
2023-03-26T04:45:46.710Z,84.23
2023-03-26T04:48:13.130Z,84.32
2023-03-26T04:50:39.488Z,83.47
2023-03-26T04:53:05.880Z,83.16
2023-03-26T04:55:32.262Z,82.96
2023-03-26T04:57:58.599Z,82.79
2023-03-26T05:00:24.981Z,82.11
2023-03-26T05:02:51.364Z,81.50
2023-03-26T05:05:17.686Z,80.97
2023-03-26T05:07:44.026Z,80.12
2023-03-26T05:10:10.423Z,79.45
2023-03-26T05:12:36.809Z,78.26
2023-03-26T05:15:03.138Z,75.14
2023-03-26T05:17:29.797Z,74.36
2023-03-26T05:19:56.160Z,73.55
2023-03-26T05:22:22.536Z,73.67
2023-03-26T05:24:48.876Z,73.58
2023-03-26T05:27:15.280Z,73.20
2023-03-26T05:29:41.679Z,73.61
2023-03-26T05:32:08.046Z,74.32
2023-03-26T05:34:34.430Z,75.75
2023-03-26T05:37:00.848Z,77.27
2023-03-26T05:39:27.170Z,78.14
2023-03-26T05:41:53.586Z,78.61
2023-03-26T05:44:19.951Z,79.02
2023-03-26T05:46:46.357Z,79.54
2023-03-26T05:49:12.692Z,79.86
2023-03-26T05:51:39.096Z,79.95
2023-03-26T05:54:05.506Z,79.67
2023-03-26T05:56:31.827Z,79.38
2023-03-26T05:58:58.122Z,78.95
2023-03-26T06:01:24.509Z,78.64
2023-03-26T06:03:51.062Z,78.22
2023-03-26T06:06:17.374Z,76.68
2023-03-26T06:08:43.756Z,74.61
2023-03-26T06:11:10.139Z,72.60
2023-03-26T06:13:36.731Z,71.60
2023-03-26T06:16:03.197Z,69.72
2023-03-26T06:18:29.430Z,67.67
2023-03-26T06:20:56.031Z,65.92
2023-03-26T06:23:22.239Z,63.09
2023-03-26T06:25:48.699Z,62.21
2023-03-26T06:28:15.294Z,62.50
2023-03-26T06:30:41.670Z,60.84
2023-03-26T06:33:07.997Z,61.37
2023-03-26T06:35:34.391Z,61.70
2023-03-26T06:38:00.722Z,61.63
2023-03-26T06:40:27.169Z,60.34
2023-03-26T06:43:07.990Z,59.57
2023-03-26T06:45:19.864Z,59.85
2023-03-26T06:47:46.313Z,59.40
2023-03-26T06:50:12.660Z,57.58
2023-03-26T06:52:39.016Z,56.44
2023-03-26T06:55:05.405Z,55.88
2023-03-26T06:57:31.757Z,56.56
2023-03-26T06:59:58.124Z,55.69
2023-03-26T07:02:24.585Z,56.41
2023-03-26T07:04:50.905Z,55.92
2023-03-26T07:07:17.221Z,55.19
2023-03-26T07:09:43.644Z,55.29
2023-03-26T07:12:10.014Z,55.52
2023-03-26T07:14:36.394Z,55.62
2023-03-26T07:17:02.726Z,52.97
2023-03-26T07:19:29.090Z,52.58
2023-03-26T07:21:55.589Z,52.63
2023-03-26T07:24:22.035Z,52.39
2023-03-26T07:26:48.411Z,51.03
2023-03-26T07:29:14.765Z,51.57
2023-03-26T07:31:41.220Z,51.67
2023-03-26T07:34:07.504Z,50.16
2023-03-26T07:36:34.021Z,48.88
2023-03-26T07:39:00.418Z,48.11
2023-03-26T07:41:26.861Z,48.28
2023-03-26T07:43:53.223Z,49.07
2023-03-26T07:46:19.624Z,48.47
2023-03-26T07:48:45.940Z,47.80
2023-03-26T07:51:12.280Z,48.01
2023-03-26T07:53:38.753Z,47.39
2023-03-26T07:56:05.212Z,46.74
2023-03-26T07:58:31.554Z,45.83
2023-03-26T08:00:57.844Z,46.71
2023-03-26T08:03:24.308Z,46.77
2023-03-26T08:05:50.688Z,45.37
2023-03-26T08:08:16.996Z,45.81
2023-03-26T08:10:43.360Z,44.53
2023-03-26T08:13:09.896Z,44.40
2023-03-26T08:15:36.505Z,45.65
2023-03-26T08:18:02.775Z,44.98
2023-03-26T08:20:29.078Z,44.35
2023-03-26T08:22:55.465Z,43.58
2023-03-26T08:25:22.122Z,42.68
2023-03-26T08:27:48.495Z,42.84
2023-03-26T08:30:14.827Z,42.44
2023-03-26T08:32:41.344Z,42.18
2023-03-26T08:35:07.692Z,40.97
2023-03-26T08:37:34.075Z,40.99
2023-03-26T08:40:00.478Z,40.45
2023-03-26T08:42:27.944Z,39.21
2023-03-26T08:44:54.281Z,38.93
2023-03-26T08:47:21.708Z,38.86
2023-03-26T08:49:48.052Z,38.30
2023-03-26T08:52:14.399Z,38.14
2023-03-26T08:54:40.779Z,38.93
2023-03-26T08:57:07.275Z,37.63
2023-03-26T08:59:33.546Z,37.52
2023-03-26T09:01:59.964Z,37.56
2023-03-26T09:04:26.274Z,37.85
2023-03-26T09:06:52.714Z,37.26
2023-03-26T09:09:19.504Z,36.04
2023-03-26T09:11:45.444Z,35.86
2023-03-26T09:14:11.756Z,35.83
2023-03-26T09:16:40.273Z,35.01
2023-03-26T09:19:06.647Z,34.18
2023-03-26T09:21:32.985Z,34.66
2023-03-26T09:23:59.352Z,34.57
2023-03-26T09:26:26.776Z,34.03
2023-03-26T09:28:53.133Z,33.47
2023-03-26T09:31:19.544Z,32.55
2023-03-26T09:33:45.891Z,32.27
2023-03-26T09:36:12.269Z,32.19
2023-03-26T09:38:38.625Z,34.55
2023-03-26T09:41:07.465Z,34.11
2023-03-26T09:43:35.028Z,34.39
2023-03-26T09:46:01.460Z,34.06
2023-03-26T09:48:30.053Z,34.33
2023-03-26T09:50:58.110Z,34.05
2023-03-26T09:53:24.088Z,33.76
2023-03-26T09:55:52.764Z,33.00
2023-03-26T09:58:21.464Z,32.41
2023-03-26T10:00:47.889Z,32.69
2023-03-26T10:03:15.947Z,32.41
2023-03-26T10:05:42.358Z,31.86
2023-03-26T10:08:08.622Z,31.79
2023-03-26T10:10:34.993Z,32.49
2023-03-26T10:13:11.981Z,31.80
2023-03-26T10:15:27.754Z,31.45
2023-03-26T10:17:54.153Z,31.02
2023-03-26T10:20:20.510Z,30.40
2023-03-26T10:22:47.196Z,29.94
2023-03-26T10:25:13.578Z,29.95
2023-03-26T10:27:39.907Z,30.41
2023-03-26T10:30:06.284Z,29.99
2023-03-26T10:32:32.730Z,28.71
2023-03-26T10:34:59.055Z,30.02
2023-03-26T10:37:25.474Z,29.49
2023-03-26T10:39:51.817Z,29.61
2023-03-26T10:42:22.876Z,30.00
2023-03-26T10:44:50.335Z,30.12
2023-03-26T10:47:16.911Z,30.17
2023-03-26T10:49:43.264Z,29.80
2023-03-26T10:52:09.599Z,30.61
2023-03-26T10:54:36.028Z,29.41
2023-03-26T10:57:02.384Z,30.25
2023-03-26T10:59:28.701Z,29.49
2023-03-26T11:01:55.163Z,29.35
2023-03-26T11:04:21.401Z,30.65
2023-03-26T11:06:48.883Z,29.38
2023-03-26T11:09:15.566Z,28.50
2023-03-26T11:11:41.921Z,28.76
2023-03-26T11:14:09.558Z,29.56
2023-03-26T11:16:35.884Z,28.83
2023-03-26T11:19:03.850Z,27.99
2023-03-26T11:21:28.615Z,27.84
2023-03-26T11:24:05.022Z,27.69
2023-03-26T11:26:21.400Z,27.79
2023-03-26T11:29:03.856Z,29.11
2023-03-26T11:31:14.192Z,28.01
2023-03-26T11:33:45.553Z,28.76
2023-03-26T11:36:07.197Z,28.83
2023-03-26T11:38:33.497Z,28.64
2023-03-26T11:40:59.927Z,29.10
2023-03-26T11:43:27.121Z,28.24
2023-03-26T11:45:53.450Z,28.75
2023-03-26T11:48:19.847Z,28.61
2023-03-26T11:50:46.230Z,28.47
2023-03-26T11:53:12.633Z,28.50
2023-03-26T11:55:38.995Z,28.18
2023-03-26T11:58:05.412Z,28.15
2023-03-26T12:00:34.482Z,27.53
2023-03-26T12:03:00.921Z,27.60
2023-03-26T12:05:27.311Z,27.63
2023-03-26T12:07:53.668Z,27.69
2023-03-26T12:10:22.784Z,28.04
2023-03-26T12:12:49.135Z,27.21
2023-03-26T12:15:15.804Z,27.25
2023-03-26T12:17:43.127Z,26.20
2023-03-26T12:20:09.425Z,26.46
2023-03-26T12:22:35.815Z,26.84
2023-03-26T12:25:02.227Z,26.94
2023-03-26T12:27:34.780Z,26.08
2023-03-26T12:30:11.830Z,26.98
2023-03-26T12:32:45.875Z,26.00
2023-03-26T12:35:05.954Z,26.21
2023-03-26T12:37:33.543Z,25.65
2023-03-26T12:40:07.209Z,25.97
2023-03-26T12:44:51.383Z,26.95
2023-03-26T12:44:59.985Z,25.84
2023-03-26T12:48:00.342Z,25.50
2023-03-26T12:49:49.249Z,25.08
2023-03-26T12:52:24.277Z,25.88
2023-03-26T12:54:50.619Z,24.79
2023-03-26T12:57:17.040Z,24.25
2023-03-26T12:59:43.479Z,24.84
2023-03-26T13:02:10.175Z,25.54
2023-03-26T13:04:36.632Z,25.73
2023-03-26T13:07:05.166Z,26.18
2023-03-26T13:09:31.517Z,25.26
2023-03-26T13:11:57.875Z,25.38
2023-03-26T13:14:24.302Z,25.49
2023-03-26T13:16:51.040Z,25.09
2023-03-26T13:19:17.400Z,24.83
2023-03-26T13:21:45.888Z,24.41
2023-03-26T13:24:10.610Z,25.01
2023-03-26T13:26:37.029Z,25.04
2023-03-26T13:29:03.441Z,25.06
2023-03-26T13:31:29.910Z,25.11
2023-03-26T13:33:56.326Z,24.95
2023-03-26T13:36:24.189Z,24.67
2023-03-26T13:38:59.253Z,25.60
2023-03-26T13:41:15.429Z,26.29
2023-03-26T13:43:41.822Z,27.04
2023-03-26T13:46:08.225Z,26.82
2023-03-26T13:48:34.522Z,26.97
2023-03-26T13:51:00.976Z,27.22
2023-03-26T13:53:27.370Z,27.31
2023-03-26T13:55:53.723Z,29.10
2023-03-26T13:58:20.092Z,26.87
2023-03-26T14:00:46.448Z,26.27
2023-03-26T14:03:12.840Z,26.39
2023-03-26T14:05:39.229Z,26.70
2023-03-26T14:08:05.627Z,26.66
2023-03-26T14:10:31.910Z,25.73
2023-03-26T14:12:58.319Z,25.17
2023-03-26T14:15:24.685Z,24.92
2023-03-26T14:17:51.036Z,24.94
2023-03-26T14:20:17.474Z,25.00
2023-03-26T14:22:43.856Z,24.08
2023-03-26T14:25:10.213Z,24.45
2023-03-26T14:27:36.611Z,24.51
2023-03-26T14:30:03.076Z,24.83
2023-03-26T14:32:29.410Z,25.55
2023-03-26T14:34:55.712Z,25.98
2023-03-26T14:37:27.313Z,25.60
2023-03-26T14:39:48.576Z,25.83
2023-03-26T14:42:14.957Z,25.92
2023-03-26T14:44:48.159Z,26.15
2023-03-26T14:47:07.804Z,26.36
2023-03-26T14:49:34.109Z,26.85
2023-03-26T14:52:00.506Z,26.93
2023-03-26T14:54:26.833Z,27.11
2023-03-26T14:56:53.272Z,27.15
2023-03-26T14:59:19.556Z,27.30
2023-03-26T15:01:45.937Z,27.26
2023-03-26T15:04:12.284Z,26.98
2023-03-26T15:06:38.729Z,26.19
2023-03-26T15:09:05.130Z,25.55
2023-03-26T15:11:32.990Z,24.48
2023-03-26T15:13:57.978Z,24.76
2023-03-26T15:16:26.233Z,24.99
2023-03-26T15:18:50.696Z,25.44
2023-03-26T15:21:17.090Z,25.75
2023-03-26T15:23:43.438Z,26.29
2023-03-26T15:26:09.821Z,26.28
2023-03-26T15:28:36.169Z,26.40
2023-03-26T15:31:02.512Z,26.64
2023-03-26T15:33:28.864Z,26.56
2023-03-26T15:35:57.377Z,26.86
2023-03-26T15:38:21.617Z,27.17
2023-03-26T15:40:48.381Z,27.40
2023-03-26T15:43:14.704Z,27.20
2023-03-26T15:45:41.175Z,27.29
2023-03-26T15:48:10.334Z,27.39
2023-03-26T15:50:33.886Z,27.25
2023-03-26T15:53:00.255Z,27.63
2023-03-26T15:55:26.609Z,28.02
2023-03-26T15:57:53.003Z,28.48
2023-03-26T16:00:19.344Z,28.76
2023-03-26T16:02:45.809Z,29.03
2023-03-26T16:05:12.173Z,29.17
2023-03-26T16:07:38.494Z,29.49
2023-03-26T16:10:07.149Z,29.70
2023-03-26T16:12:33.468Z,29.93
2023-03-26T16:14:59.825Z,30.24
2023-03-26T16:17:26.231Z,30.30
2023-03-26T16:19:52.599Z,30.47
2023-03-26T16:22:18.913Z,31.20
2023-03-26T16:24:45.315Z,31.62
2023-03-26T16:27:11.644Z,31.27
2023-03-26T16:29:38.083Z,31.90
2023-03-26T16:32:04.529Z,32.44
2023-03-26T16:34:31.092Z,32.89
2023-03-26T16:36:57.219Z,32.20
2023-03-26T16:39:23.599Z,32.03
2023-03-26T16:41:49.963Z,32.35
2023-03-26T16:44:16.310Z,32.75
2023-03-26T16:46:42.728Z,33.79
2023-03-26T16:49:09.052Z,33.70
2023-03-26T16:51:35.426Z,33.66
2023-03-26T16:54:01.862Z,33.76
2023-03-26T16:56:28.216Z,35.01
2023-03-26T16:58:54.618Z,34.46
2023-03-26T17:01:21.117Z,34.33
2023-03-26T17:03:47.582Z,34.30
2023-03-26T17:06:13.916Z,35.11
2023-03-26T17:08:40.364Z,34.80
2023-03-26T17:11:06.707Z,34.79
2023-03-26T17:13:33.145Z,34.34
2023-03-26T17:15:59.552Z,35.44
2023-03-26T17:18:25.953Z,35.16
2023-03-26T17:20:52.211Z,35.17
2023-03-26T17:23:18.621Z,34.81
2023-03-26T17:25:45.442Z,35.04
2023-03-26T17:28:11.828Z,35.75
2023-03-26T17:30:38.185Z,34.69
2023-03-26T17:33:04.639Z,35.14
2023-03-26T17:35:30.996Z,34.96
2023-03-26T17:37:57.350Z,34.98
2023-03-26T17:40:23.835Z,35.27
2023-03-26T17:42:50.205Z,35.16
2023-03-26T17:45:16.585Z,34.67
2023-03-26T17:47:43.079Z,34.84
2023-03-26T17:50:09.413Z,34.94
2023-03-26T17:52:35.741Z,35.13
2023-03-26T17:55:02.133Z,35.39
2023-03-26T17:57:28.519Z,35.49
2023-03-26T17:59:54.892Z,35.94
2023-03-26T18:02:21.377Z,36.65
2023-03-26T18:04:47.691Z,36.56
2023-03-26T18:07:14.133Z,37.04
2023-03-26T18:09:40.499Z,37.05
2023-03-26T18:12:06.889Z,36.83
2023-03-26T18:14:33.320Z,38.08
2023-03-26T18:17:00.746Z,38.13
2023-03-26T18:19:27.072Z,37.90
2023-03-26T18:21:53.424Z,38.07
2023-03-26T18:24:19.744Z,37.58
2023-03-26T18:26:46.256Z,37.46
2023-03-26T18:29:12.611Z,38.12
2023-03-26T18:31:39.004Z,38.41
2023-03-26T18:34:05.410Z,38.66
2023-03-26T18:36:31.768Z,39.21
2023-03-26T18:38:58.087Z,40.13
2023-03-26T18:41:24.641Z,39.93
2023-03-26T18:43:52.115Z,40.26
2023-03-26T18:46:18.644Z,40.05
2023-03-26T18:48:44.947Z,40.58
2023-03-26T18:51:11.340Z,40.75
2023-03-26T18:53:37.750Z,40.83
2023-03-26T18:56:04.206Z,40.60
2023-03-26T18:58:30.606Z,40.59
2023-03-26T19:00:57.194Z,40.92
2023-03-26T19:03:23.462Z,40.50
2023-03-26T19:05:49.750Z,40.82
2023-03-26T19:08:16.082Z,40.73
2023-03-26T19:10:42.486Z,40.74
2023-03-26T19:13:08.903Z,40.41
2023-03-26T19:15:35.351Z,40.98
2023-03-26T19:18:01.778Z,40.43
2023-03-26T19:20:28.222Z,40.66
2023-03-26T19:22:54.634Z,41.52
2023-03-26T19:25:21.024Z,40.80
2023-03-26T19:27:47.632Z,40.38
2023-03-26T19:30:13.977Z,39.92
2023-03-26T19:32:40.381Z,39.81
2023-03-26T19:35:06.737Z,39.79
2023-03-26T19:37:33.193Z,40.03
2023-03-26T19:40:01.084Z,40.36
2023-03-26T19:42:27.431Z,40.45
2023-03-26T19:44:53.789Z,40.98
2023-03-26T19:47:20.219Z,40.79
2023-03-26T19:49:46.584Z,41.52
2023-03-26T19:52:12.962Z,42.93
2023-03-26T19:54:39.322Z,43.37
2023-03-26T19:57:05.786Z,43.56
2023-03-26T19:59:32.178Z,43.68
2023-03-26T20:01:58.531Z,43.21
2023-03-26T20:04:24.881Z,43.58
2023-03-26T20:06:51.383Z,44.39
2023-03-26T20:09:17.845Z,45.51
2023-03-26T20:11:44.189Z,46.43
2023-03-26T20:14:10.712Z,47.21
2023-03-26T20:16:37.155Z,47.84
2023-03-26T20:19:03.411Z,47.97
2023-03-26T20:21:29.840Z,48.79
2023-03-26T20:23:56.262Z,48.94
2023-03-26T20:26:22.646Z,49.60
2023-03-26T20:28:53.226Z,49.77
2023-03-26T20:31:15.351Z,49.97
2023-03-26T20:33:41.731Z,49.92
2023-03-26T20:36:08.263Z,49.79
2023-03-26T20:38:39.525Z,49.24
2023-03-26T20:41:00.993Z,48.66
2023-03-26T20:43:27.352Z,48.03
2023-03-26T20:45:53.889Z,47.66
2023-03-26T20:48:20.011Z,47.75
2023-03-26T20:51:01.768Z,47.15
2023-03-26T20:53:12.758Z,47.05
2023-03-26T20:55:39.081Z,47.30
2023-03-26T20:58:05.483Z,47.23
2023-03-26T21:00:31.917Z,46.88
2023-03-26T21:02:58.224Z,46.72
2023-03-26T21:05:24.545Z,46.73
2023-03-26T21:07:50.853Z,46.87
2023-03-26T21:10:17.230Z,46.71
2023-03-26T21:12:43.737Z,46.95
2023-03-26T21:15:17.070Z,46.96
2023-03-26T21:17:36.478Z,47.13
2023-03-26T21:20:02.841Z,47.51
2023-03-26T21:22:29.180Z,46.62
2023-03-26T21:24:55.606Z,46.36
2023-03-26T21:27:21.980Z,46.55
2023-03-26T21:29:48.284Z,46.63
2023-03-26T21:32:14.693Z,46.85
2023-03-26T21:34:47.819Z,46.94
2023-03-26T21:37:07.436Z,47.36
2023-03-26T21:39:33.808Z,48.14
2023-03-26T21:42:04.731Z,48.71
2023-03-26T21:44:26.564Z,48.58
2023-03-26T21:46:52.909Z,48.97
2023-03-26T21:49:19.242Z,49.34
2023-03-26T21:51:45.594Z,50.17
2023-03-26T21:54:11.945Z,51.21
2023-03-26T21:56:38.373Z,51.61
2023-03-26T21:59:04.665Z,51.77
2023-03-26T22:01:31.326Z,51.83
2023-03-26T22:03:57.671Z,52.31
2023-03-26T22:06:26.435Z,52.50
2023-03-26T22:08:52.806Z,52.56
2023-03-26T22:11:19.183Z,52.78
2023-03-26T22:13:45.505Z,52.73
2023-03-26T22:16:11.950Z,52.59
2023-03-26T22:18:38.286Z,52.62
2023-03-26T22:21:04.735Z,52.18
2023-03-26T22:23:31.067Z,51.89
2023-03-26T22:25:57.425Z,51.94
2023-03-26T22:28:23.759Z,52.38
2023-03-26T22:30:50.138Z,51.94
2023-03-26T22:33:16.500Z,52.20
2023-03-26T22:35:42.954Z,52.01
2023-03-26T22:38:09.213Z,51.54
2023-03-26T22:40:35.538Z,51.81
2023-03-26T22:43:01.880Z,52.46
2023-03-26T22:45:28.204Z,52.36
2023-03-26T22:48:03.062Z,52.90
2023-03-26T22:50:20.993Z,51.79
2023-03-26T22:52:47.332Z,51.65
2023-03-26T22:55:13.649Z,51.46
2023-03-26T22:57:40.020Z,51.76
2023-03-26T23:00:06.343Z,52.22
2023-03-26T23:02:32.754Z,52.49
2023-03-26T23:04:59.052Z,52.67
2023-03-26T23:07:25.606Z,52.52
2023-03-26T23:09:52.057Z,52.76
2023-03-26T23:12:18.415Z,52.55
2023-03-26T23:14:44.754Z,52.06
2023-03-26T23:17:11.236Z,50.82
2023-03-26T23:19:37.592Z,50.49
2023-03-26T23:22:04.024Z,50.72
2023-03-26T23:24:30.468Z,51.23
2023-03-26T23:26:56.852Z,51.16
2023-03-26T23:29:23.284Z,51.18
2023-03-26T23:31:49.894Z,50.60
2023-03-26T23:34:16.222Z,50.86
2023-03-26T23:36:42.561Z,50.73
2023-03-26T23:39:08.950Z,49.82
2023-03-26T23:41:35.323Z,49.94
2023-03-26T23:44:01.673Z,50.20
2023-03-26T23:46:28.183Z,50.26
2023-03-26T23:48:54.510Z,50.61
2023-03-26T23:51:20.854Z,51.37
2023-03-26T23:53:47.411Z,50.96
2023-03-26T23:56:13.720Z,51.14
2023-03-26T23:58:40.065Z,51.27
